Time;durP1;ratioP1;P1;durP2;ratioP2;P2;SDS_P1;SDS_P2;PMS_P1;PMS_P2;Temp;Humidity;BMP_temperature;BMP_pressure;BME280_temperature;BME280_humidity;BME280_pressure;Samples;Min_cycle;Max_cycle;Signal;HPM_P1;HPM_P2
2024/03/05 00:00:10;;;;;;;74.93;34.22;;;;;;;9.71;100.00;100368.72;5191765;28;20052;-74
2024/03/05 00:02:44;;;;;;;72.30;34.00;;;;;;;9.77;100.00;100374.59;5198020;28;20120;-74
2024/03/05 00:05:14;;;;;;;72.93;34.42;;;;;;;9.72;100.00;100370.44;5198243;28;20491;-74
2024/03/05 00:07:44;;;;;;;78.90;34.50;;;;;;;9.61;100.00;100363.00;5197923;28;20078;-74
2024/03/05 00:10:15;;;;;;;79.43;34.63;;;;;;;9.57;100.00;100370.97;5198459;28;20025;-74
2024/03/05 00:12:47;;;;;;;83.18;35.05;;;;;;;9.57;100.00;100369.22;5180773;28;20041;-74
2024/03/05 00:15:17;;;;;;;79.22;35.08;;;;;;;9.55;100.00;100370.16;5198105;28;20123;-74
2024/03/05 00:17:47;;;;;;;76.00;34.65;;;;;;;9.55;100.00;100365.81;5194189;28;20104;-74
2024/03/05 00:20:18;;;;;;;75.13;33.78;;;;;;;9.70;100.00;100362.69;5198304;28;20072;-74
2024/03/05 00:22:50;;;;;;;72.40;33.30;;;;;;;9.59;100.00;100376.97;5180895;28;20103;-74
2024/03/05 00:25:20;;;;;;;79.68;36.03;;;;;;;9.69;100.00;100373.16;5197617;28;20033;-74
2024/03/05 00:27:51;;;;;;;84.97;36.80;;;;;;;9.68;100.00;100372.28;5194521;28;20502;-74
2024/03/05 00:30:22;;;;;;;77.70;34.63;;;;;;;9.65;100.00;100377.63;5193223;28;20041;-74
2024/03/05 00:32:52;;;;;;;77.88;36.03;;;;;;;9.85;100.00;100374.31;5190349;28;20026;-74
2024/03/05 00:35:22;;;;;;;75.85;34.30;;;;;;;9.86;100.00;100370.81;5192682;28;20406;-74
2024/03/05 00:37:53;;;;;;;65.90;31.83;;;;;;;9.84;100.00;100377.84;5196880;28;20234;-74
2024/03/05 00:40:24;;;;;;;74.75;34.80;;;;;;;9.76;100.00;100375.50;5189067;28;20505;-74
2024/03/05 00:42:54;;;;;;;81.18;35.45;;;;;;;9.81;100.00;100378.78;5193487;28;20191;-74
2024/03/05 00:45:25;;;;;;;78.05;33.83;;;;;;;9.83;100.00;100381.34;5177670;28;20060;-73
2024/03/05 00:47:56;;;;;;;83.45;34.58;;;;;;;9.88;100.00;100379.44;5193373;28;20025;-74
2024/03/05 00:50:27;;;;;;;74.80;33.85;;;;;;;9.78;100.00;100378.03;5187962;28;20056;-74
2024/03/05 00:52:57;;;;;;;77.28;36.03;;;;;;;9.73;100.00;100366.91;5191479;28;20114;-74
2024/03/05 00:55:28;;;;;;;78.05;34.30;;;;;;;9.74;100.00;100366.88;5193199;28;20284;-74
2024/03/05 00:57:58;;;;;;;73.15;33.50;;;;;;;9.77;100.00;100371.97;5195425;28;20025;-74
2024/03/05 01:00:29;;;;;;;74.82;34.45;;;;;;;9.71;100.00;100376.56;5195907;28;20031;-72
2024/03/05 01:02:59;;;;;;;78.30;35.63;;;;;;;9.69;100.00;100373.16;5197637;28;20386;-74
2024/03/05 01:05:29;;;;;;;74.07;35.05;;;;;;;9.76;100.00;100377.25;5191903;28;20075;-72
2024/03/05 01:08:00;;;;;;;77.25;35.03;;;;;;;9.68;100.00;100368.84;5190692;28;20479;-74
2024/03/05 01:10:30;;;;;;;80.40;34.13;;;;;;;9.82;100.00;100374.44;5196506;28;20032;-71
2024/03/05 01:13:00;;;;;;;77.40;35.72;;;;;;;9.75;100.00;100379.03;5197678;28;20030;-74
2024/03/05 01:15:31;;;;;;;77.53;34.92;;;;;;;9.66;100.00;100373.28;5196400;28;20529;-74
2024/03/05 01:18:01;;;;;;;76.93;35.20;;;;;;;9.60;100.00;100373.47;5193421;28;20090;-74
2024/03/05 01:20:32;;;;;;;74.18;33.95;;;;;;;9.67;100.00;100369.75;5196661;28;20021;-72
2024/03/05 01:23:03;;;;;;;77.30;33.95;;;;;;;9.79;100.00;100375.38;5197300;28;20026;-74
2024/03/05 01:25:33;;;;;;;74.57;33.88;;;;;;;9.80;100.00;100371.03;5196327;28;20029;-74
2024/03/05 01:28:04;;;;;;;77.90;35.28;;;;;;;9.66;100.00;100371.50;5195051;28;20032;-74
2024/03/05 01:30:35;;;;;;;78.00;33.88;;;;;;;9.76;100.00;100369.41;5190850;28;20171;-74
2024/03/05 01:33:09;;;;;;;76.10;35.25;;;;;;;9.81;100.00;100367.50;5197111;28;20094;-74
2024/03/05 01:35:41;;;;;;;70.97;34.33;;;;;;;9.76;100.00;100369.41;5196114;28;20117;-74
2024/03/05 01:38:12;;;;;;;78.38;35.00;;;;;;;9.88;100.00;100364.63;5195661;28;20037;-74
2024/03/05 01:40:42;;;;;;;79.55;35.47;;;;;;;9.87;100.00;100368.16;5193153;28;20025;-75
2024/03/05 01:43:13;;;;;;;80.57;35.15;;;;;;;9.84;100.00;100372.63;5195285;28;20033;-74
2024/03/05 01:45:43;;;;;;;79.68;34.92;;;;;;;9.85;100.00;100364.72;5195087;28;20212;-74
2024/03/05 01:48:14;;;;;;;79.85;35.88;;;;;;;9.79;100.00;100358.91;5192872;28;20053;-74
2024/03/05 01:50:44;;;;;;;73.68;34.55;;;;;;;9.84;100.00;100362.19;5188310;28;20110;-74
2024/03/05 01:53:16;;;;;;;82.60;37.35;;;;;;;9.81;100.00;100362.28;5183034;28;20059;-74
2024/03/05 01:55:48;;;;;;;73.35;34.42;;;;;;;9.74;100.00;100366.00;5174624;28;20098;-74
2024/03/05 01:58:19;;;;;;;80.50;34.65;;;;;;;9.80;100.00;100365.81;5181131;28;20368;-74
2024/03/05 02:00:49;;;;;;;71.45;34.60;;;;;;;9.75;100.00;100362.50;5185035;28;20395;-75
2024/03/05 02:03:20;;;;;;;69.68;32.83;;;;;;;9.67;100.00;100369.75;5182636;28;20029;-74
2024/03/05 02:05:53;;;;;;;68.40;32.13;;;;;;;9.66;100.00;100368.06;5194708;28;20025;-74
2024/03/05 02:08:24;;;;;;;62.28;31.15;;;;;;;9.42;100.00;100374.97;5193239;28;20025;-74
2024/03/05 02:10:55;;;;;;;58.10;29.45;;;;;;;9.37;100.00;100376.88;5184954;28;20048;-74
2024/03/05 02:13:25;;;;;;;60.78;31.02;;;;;;;9.42;100.00;100379.31;5191477;28;20052;-74
2024/03/05 02:15:55;;;;;;;58.75;28.00;;;;;;;9.36;100.00;100369.97;5173642;28;20289;-74
2024/03/05 02:18:26;;;;;;;54.58;27.90;;;;;;;9.51;100.00;100377.25;5191622;28;20083;-74
2024/03/05 02:21:02;;;;;;;50.75;26.13;;;;;;;9.45;100.00;100381.84;5195475;28;20061;-74
2024/03/05 02:23:35;;;;;;;48.58;25.05;;;;;;;9.52;100.00;100375.50;5190894;28;20033;-74
2024/03/05 02:26:06;;;;;;;45.90;24.73;;;;;;;9.46;100.00;100373.94;5188017;28;20033;-74
2024/03/05 02:28:38;;;;;;;51.33;24.70;;;;;;;9.17;100.00;100381.88;5194358;28;20541;-73
2024/03/05 02:31:08;;;;;;;44.63;23.33;;;;;;;9.22;100.00;100389.56;5196389;28;20285;-74
2024/03/05 02:33:42;;;;;;;45.78;22.98;;;;;;;9.32;100.00;100388.38;5179410;28;20021;-74
2024/03/05 02:36:12;;;;;;;43.38;21.70;;;;;;;9.27;100.00;100395.47;5189739;28;20029;-74
2024/03/05 02:38:42;;;;;;;41.80;22.65;;;;;;;9.23;100.00;100381.72;5193786;28;20487;-74
2024/03/05 02:41:13;;;;;;;38.67;21.48;;;;;;;9.16;100.00;100388.00;5195250;28;20079;-74
2024/03/05 02:43:45;;;;;;;40.25;21.88;;;;;;;9.07;100.00;100391.84;5195859;28;20095;-74
2024/03/05 02:46:15;;;;;;;46.78;22.00;;;;;;;9.02;100.00;100391.09;5193579;28;20041;-73
2024/03/05 02:48:46;;;;;;;47.13;22.98;;;;;;;8.97;100.00;100388.69;5190696;28;20025;-74
2024/03/05 02:51:16;;;;;;;43.38;21.48;;;;;;;8.99;100.00;100391.22;5196055;28;20032;-74
2024/03/05 02:53:47;;;;;;;41.75;22.17;;;;;;;9.10;100.00;100391.72;5195316;28;20390;-74
2024/03/05 02:56:17;;;;;;;42.08;22.75;;;;;;;8.98;100.00;100395.59;5198675;28;20029;-74
2024/03/05 02:58:48;;;;;;;41.47;22.15;;;;;;;9.05;100.00;100386.66;5198789;28;20650;-74
2024/03/05 03:01:18;;;;;;;39.35;21.80;;;;;;;9.05;100.00;100391.88;5199399;28;20017;-74
2024/03/05 03:03:48;;;;;;;45.97;22.25;;;;;;;8.94;100.00;100391.38;5173657;28;20021;-74
2024/03/05 03:06:19;;;;;;;41.22;21.88;;;;;;;8.97;100.00;100390.41;5196042;28;20441;-74
2024/03/05 03:08:49;;;;;;;43.75;22.00;;;;;;;8.98;100.00;100393.00;5199006;28;20064;-74
2024/03/05 03:11:19;;;;;;;41.22;22.25;;;;;;;8.92;100.00;100392.31;5199450;28;20036;-74
2024/03/05 03:13:50;;;;;;;43.88;23.17;;;;;;;8.92;100.00;100390.56;5185434;28;20026;-74
2024/03/05 03:16:21;;;;;;;41.88;21.38;;;;;;;8.93;100.00;100394.88;5194433;28;20315;-74
2024/03/05 03:18:51;;;;;;;42.58;21.90;;;;;;;8.79;100.00;100396.22;5198063;28;20040;-74
2024/03/05 03:21:22;;;;;;;43.95;22.48;;;;;;;8.88;100.00;100396.78;5199303;28;20017;-74
2024/03/05 03:23:54;;;;;;;41.85;21.88;;;;;;;8.90;100.00;100391.53;5182632;28;20072;-74
2024/03/05 03:26:24;;;;;;;42.78;21.70;;;;;;;8.95;100.00;100406.13;5198322;28;20040;-74
2024/03/05 03:28:55;;;;;;;43.00;21.70;;;;;;;8.90;100.00;100404.56;5186783;28;20029;-74
2024/03/05 03:31:26;;;;;;;42.28;22.00;;;;;;;8.91;100.00;100396.66;5191719;28;20037;-74
2024/03/05 03:33:56;;;;;;;42.80;23.20;;;;;;;8.74;100.00;100406.75;5182493;28;20036;-74
2024/03/05 03:36:27;;;;;;;41.25;21.92;;;;;;;8.70;100.00;100410.38;5199162;28;20102;-73
2024/03/05 03:38:57;;;;;;;45.17;22.45;;;;;;;8.70;100.00;100402.56;5198846;28;20549;-74
2024/03/05 03:41:28;;;;;;;45.45;22.73;;;;;;;8.81;100.00;100410.03;5196484;28;20164;-74
2024/03/05 03:43:59;;;;;;;39.10;21.65;;;;;;;8.81;100.00;100404.81;5183307;28;20268;-74
2024/03/05 03:46:30;;;;;;;42.47;22.05;;;;;;;8.65;100.00;100409.66;5194858;28;20040;-73
2024/03/05 03:49:03;;;;;;;40.45;21.08;;;;;;;8.75;100.00;100405.88;5196126;28;20021;-74
2024/03/05 03:51:33;;;;;;;40.20;21.00;;;;;;;8.58;100.00;100412.50;5198923;28;20022;-73
2024/03/05 03:54:04;;;;;;;37.25;20.05;;;;;;;8.57;100.00;100414.25;5188545;28;20092;-74
2024/03/05 03:56:34;;;;;;;37.85;20.25;;;;;;;8.54;100.00;100408.28;5194105;28;20522;-71
2024/03/05 03:59:05;;;;;;;40.33;20.92;;;;;;;8.27;100.00;100411.69;5172679;28;20120;-72
2024/03/05 04:01:36;;;;;;;46.22;22.40;;;;;;;8.36;100.00;100414.03;5192402;28;20379;-74
2024/03/05 04:04:07;;;;;;;45.15;21.42;;;;;;;8.32;100.00;100410.66;5197383;28;20030;-74
2024/03/05 04:06:38;;;;;;;47.13;23.70;;;;;;;8.12;100.00;100412.97;5197637;28;20388;-74
2024/03/05 04:09:09;;;;;;;44.55;23.13;;;;;;;8.28;100.00;100413.41;5198488;28;20032;-74
2024/03/05 04:11:41;;;;;;;47.30;22.85;;;;;;;8.22;100.00;100413.59;5197834;28;20161;-72
2024/03/05 04:14:11;;;;;;;43.60;23.27;;;;;;;8.12;100.00;100418.16;5194193;28;20043;-74
2024/03/05 04:16:42;;;;;;;41.35;22.73;;;;;;;8.14;100.00;100415.50;5193182;28;20017;-72
2024/03/05 04:19:12;;;;;;;46.58;23.13;;;;;;;8.01;100.00;100422.81;5185347;28;20041;-74
2024/03/05 04:21:44;;;;;;;52.67;22.90;;;;;;;8.05;100.00;100420.97;5193723;28;20152;-74
2024/03/05 04:24:15;;;;;;;40.35;22.20;;;;;;;8.02;100.00;100421.91;5198756;28;20494;-74
2024/03/05 04:26:48;;;;;;;40.35;20.95;;;;;;;8.13;100.00;100419.88;5197574;28;20032;-74
2024/03/05 04:29:19;;;;;;;39.40;20.67;;;;;;;7.99;100.00;100427.19;5187408;28;20027;-74
2024/03/05 04:32:05;;;;;;;39.75;20.80;;;;;;;8.11;100.00;100426.88;5193017;28;20033;-74
2024/03/05 04:34:35;;;;;;;43.72;19.90;;;;;;;7.78;100.00;100432.13;5196282;28;20032;-74
2024/03/05 04:37:12;;;;;;;39.53;20.05;;;;;;;7.98;100.00;100429.84;5197391;28;20479;-74
2024/03/05 04:39:42;;;;;;;39.78;18.67;;;;;;;7.86;100.00;100428.41;5196893;28;20509;-74
2024/03/05 04:42:14;;;;;;;40.45;19.13;;;;;;;7.94;100.00;100433.41;5197150;28;20041;-74
2024/03/05 04:44:45;;;;;;;38.85;18.67;;;;;;;7.74;100.00;100428.75;5179967;28;20034;-74
2024/03/05 04:47:15;;;;;;;35.95;18.02;;;;;;;7.68;100.00;100435.88;5191862;28;20506;-74
2024/03/05 04:49:47;;;;;;;44.65;18.83;;;;;;;7.56;100.00;100439.63;5195581;28;20018;-73
2024/03/05 04:52:18;;;;;;;35.35;18.17;;;;;;;7.47;100.00;100436.41;5196435;28;20196;-74
2024/03/05 04:54:48;;;;;;;34.30;18.80;;;;;;;7.52;100.00;100438.00;5197057;28;20037;-74
2024/03/05 04:57:19;;;;;;;39.70;18.77;;;;;;;7.56;100.00;100438.78;5197831;28;20119;-74
2024/03/05 04:59:50;;;;;;;35.88;17.92;;;;;;;7.51;100.00;100432.88;5196581;28;20110;-74
2024/03/05 05:02:21;;;;;;;46.80;19.80;;;;;;;7.47;100.00;100437.28;5186601;28;20527;-74
2024/03/05 05:04:51;;;;;;;35.17;19.10;;;;;;;7.58;100.00;100440.47;5194383;28;20071;-74
2024/03/05 05:07:23;;;;;;;42.35;19.00;;;;;;;7.55;100.00;100435.31;5197906;28;20248;-74
2024/03/05 05:09:53;;;;;;;39.92;18.90;;;;;;;7.58;100.00;100435.28;5196908;28;20040;-74
2024/03/05 05:12:24;;;;;;;40.28;18.02;;;;;;;7.71;100.00;100433.19;5197476;28;20025;-74
2024/03/05 05:14:54;;;;;;;35.72;18.25;;;;;;;7.59;100.00;100442.19;5197078;28;20449;-74
2024/03/05 05:17:25;;;;;;;37.85;18.80;;;;;;;7.46;100.00;100432.97;5193469;28;20037;-74
2024/03/05 05:19:55;;;;;;;40.38;17.42;;;;;;;7.49;100.00;100434.66;5196450;28;20025;-74
2024/03/05 05:22:26;;;;;;;34.90;17.10;;;;;;;7.43;100.00;100437.38;5195075;28;20033;-74
2024/03/05 05:24:56;;;;;;;37.17;18.30;;;;;;;7.44;100.00;100439.09;5197420;28;20124;-74
2024/03/05 05:27:26;;;;;;;37.17;18.30;;;;;;;7.55;100.00;100437.09;5196895;28;20200;-74
2024/03/05 05:29:57;;;;;;;33.03;16.75;;;;;;;7.72;100.00;100433.13;5189285;28;20487;-74
2024/03/05 05:32:28;;;;;;;34.92;17.95;;;;;;;7.51;100.00;100445.88;5193655;28;20021;-74
2024/03/05 05:34:58;;;;;;;38.15;18.13;;;;;;;7.52;100.00;100432.81;5196495;28;20039;-74
2024/03/05 05:37:30;;;;;;;38.45;17.63;;;;;;;7.40;100.00;100442.66;5192760;28;20021;-75
2024/03/05 05:40:02;;;;;;;40.05;17.48;;;;;;;7.31;100.00;100446.34;5196028;28;20502;-74
2024/03/05 05:42:32;;;;;;;39.65;18.38;;;;;;;7.45;100.00;100446.00;5195789;28;20141;-74
2024/03/05 05:45:08;;;;;;;38.08;17.83;;;;;;;7.37;100.00;100443.59;5195261;28;20025;-74
2024/03/05 05:47:49;;;;;;;34.10;17.25;;;;;;;7.49;100.00;100445.88;5193302;28;20543;-74
2024/03/05 05:50:25;;;;;;;42.10;17.70;;;;;;;7.35;100.00;100447.97;5196964;28;20034;-74
2024/03/05 05:52:56;;;;;;;34.55;17.80;;;;;;;7.36;100.00;100451.44;5194930;28;20116;-74
2024/03/05 05:55:26;;;;;;;35.25;17.42;;;;;;;7.35;100.00;100458.38;5197087;28;20577;-74
2024/03/05 05:57:56;;;;;;;34.45;16.63;;;;;;;7.45;100.00;100459.88;5192119;28;20033;-74
2024/03/05 06:00:35;;;;;;;38.53;17.10;;;;;;;7.32;100.00;100460.22;5193637;28;20026;-74
2024/03/05 06:03:09;;;;;;;34.42;17.13;;;;;;;7.19;100.00;100476.09;5178753;28;20104;-73
2024/03/05 06:05:42;;;;;;;32.00;17.83;;;;;;;7.08;100.00;100467.72;5196620;28;20017;-74
2024/03/05 06:08:14;;;;;;;41.42;18.85;;;;;;;7.19;100.00;100473.50;5195871;28;20103;-73
2024/03/05 06:10:45;;;;;;;41.42;17.85;;;;;;;7.17;100.00;100477.91;5196489;28;20513;-74
2024/03/05 06:13:16;;;;;;;38.53;18.55;;;;;;;7.28;100.00;100478.50;5196310;28;20025;-74
2024/03/05 06:15:47;;;;;;;34.72;18.20;;;;;;;7.19;100.00;100476.09;5195378;28;20031;-71
2024/03/05 06:18:17;;;;;;;39.15;18.75;;;;;;;7.06;100.00;100483.34;5190179;28;20110;-74
2024/03/05 06:20:48;;;;;;;44.05;20.00;;;;;;;7.14;100.00;100472.78;5194167;28;20546;-73
2024/03/05 06:23:18;;;;;;;39.08;18.60;;;;;;;7.13;100.00;100478.88;5196797;28;20053;-74
2024/03/05 06:25:49;;;;;;;39.45;18.42;;;;;;;7.18;100.00;100484.81;5195837;28;20041;-74
2024/03/05 06:28:19;;;;;;;38.28;18.65;;;;;;;7.09;100.00;100485.88;5194715;28;20052;-74
2024/03/05 06:30:50;;;;;;;42.50;19.58;;;;;;;7.04;100.00;100489.44;5198788;28;20033;-74
2024/03/05 06:33:20;;;;;;;36.38;18.45;;;;;;;7.03;100.00;100485.16;5196420;28;20482;-73
2024/03/05 06:35:51;;;;;;;37.90;19.95;;;;;;;7.03;100.00;100490.34;5199834;28;20042;-74
2024/03/05 06:38:22;;;;;;;38.65;19.63;;;;;;;7.05;100.00;100493.75;5200073;28;20034;-74
2024/03/05 06:40:54;;;;;;;44.67;20.33;;;;;;;6.99;100.00;100491.31;5183642;28;20020;-74
2024/03/05 06:43:32;;;;;;;43.95;20.70;;;;;;;6.91;100.00;100491.47;5195168;28;20585;-73
2024/03/05 06:46:03;;;;;;;47.17;20.40;;;;;;;6.98;100.00;100494.78;5194561;28;20076;-74
2024/03/05 06:48:34;;;;;;;44.30;20.08;;;;;;;7.03;100.00;100493.81;5177570;28;20057;-74
2024/03/05 06:51:16;;;;;;;41.65;20.50;;;;;;;6.87;100.00;100501.97;5180002;28;20491;-74
2024/03/05 06:56:41;;;;;;;51.47;22.05;;;;;;;6.97;100.00;100503.47;5194570;28;20032;-73
2024/03/05 06:59:11;;;;;;;45.38;21.55;;;;;;;7.06;100.00;100511.06;5196963;28;20083;-74
2024/03/05 07:01:41;;;;;;;44.10;20.55;;;;;;;6.89;100.00;100518.38;5197166;28;20013;-73
2024/03/05 07:04:12;;;;;;;46.13;21.33;;;;;;;7.01;100.00;100512.91;5197278;28;20068;-74
2024/03/05 07:06:42;;;;;;;41.67;21.45;;;;;;;7.09;100.00;100518.81;5199327;28;20029;-74
2024/03/05 07:09:14;;;;;;;44.90;21.25;;;;;;;7.01;100.00;100512.91;5195404;28;20109;-74
2024/03/05 07:11:45;;;;;;;43.22;21.23;;;;;;;7.09;100.00;100517.03;5197282;28;20022;-74
2024/03/05 07:14:15;;;;;;;40.45;21.38;;;;;;;7.01;100.00;100528.50;5198098;28;20437;-74
2024/03/05 07:16:46;;;;;;;44.88;21.40;;;;;;;7.03;100.00;100519.78;5193863;28;20033;-74
2024/03/05 07:19:16;;;;;;;40.10;20.98;;;;;;;6.96;100.00;100525.16;5197744;28;20053;-74
2024/03/05 07:21:47;;;;;;;40.40;20.35;;;;;;;7.04;100.00;100531.03;5197596;28;20485;-74
2024/03/05 07:24:18;;;;;;;37.15;20.20;;;;;;;7.08;100.00;100528.34;5197077;28;20033;-74
2024/03/05 07:26:48;;;;;;;43.42;19.70;;;;;;;7.00;100.00;100539.78;5196216;28;20033;-74
2024/03/05 07:29:18;;;;;;;41.17;19.55;;;;;;;6.96;100.00;100535.53;5196913;28;20483;-74
2024/03/05 07:31:49;;;;;;;38.67;19.23;;;;;;;7.02;100.00;100535.41;5197218;28;20056;-74
2024/03/05 07:34:20;;;;;;;40.08;19.38;;;;;;;6.95;100.00;100536.44;5196727;28;20040;-74
2024/03/05 07:36:50;;;;;;;44.53;19.67;;;;;;;7.06;100.00;100535.31;5196435;28;20213;-72
2024/03/05 07:39:24;;;;;;;40.75;19.92;;;;;;;7.12;100.00;100523.94;5196780;28;20348;-74
2024/03/05 07:41:55;;;;;;;42.78;20.00;;;;;;;7.09;100.00;100532.63;5195160;28;20048;-74
2024/03/05 07:44:25;;;;;;;42.13;19.35;;;;;;;7.18;100.00;100535.03;5198420;28;20033;-74
2024/03/05 07:46:56;;;;;;;40.70;19.27;;;;;;;7.10;100.00;100534.34;5193417;28;20526;-74
2024/03/05 07:49:26;;;;;;;43.35;19.85;;;;;;;7.20;100.00;100529.78;5196892;28;20560;-74
2024/03/05 07:51:57;;;;;;;39.15;18.90;;;;;;;7.06;100.00;100535.31;5189398;28;20032;-74
2024/03/05 07:54:27;;;;;;;35.28;18.55;;;;;;;7.17;100.00;100537.66;5195490;28;20032;-74
2024/03/05 07:56:57;;;;;;;37.63;18.77;;;;;;;7.32;100.00;100533.81;5195138;28;20031;-74
2024/03/05 07:59:28;;;;;;;37.13;19.50;;;;;;;7.38;100.00;100546.66;5197548;28;20029;-74
2024/03/05 08:01:58;;;;;;;36.67;18.20;;;;;;;7.43;100.00;100541.38;5191490;28;20249;-75
2024/03/05 08:04:28;;;;;;;43.50;19.42;;;;;;;7.48;100.00;100536.91;5198654;28;20025;-75
2024/03/05 08:06:59;;;;;;;34.97;18.83;;;;;;;7.37;100.00;100541.53;5196918;28;20483;-75
2024/03/05 08:09:29;;;;;;;36.92;18.70;;;;;;;7.45;100.00;100540.47;5197449;28;20029;-75
2024/03/05 08:12:00;;;;;;;37.88;18.73;;;;;;;7.50;100.00;100541.19;5196246;28;20032;-75
2024/03/05 08:14:31;;;;;;;38.42;18.00;;;;;;;7.54;100.00;100544.59;5193876;28;20475;-75
2024/03/05 08:17:08;;;;;;;34.92;17.77;;;;;;;7.41;100.00;100538.81;5185182;28;20098;-74
2024/03/05 08:19:38;;;;;;;33.72;17.25;;;;;;;7.46;100.00;100543.91;5190404;28;20022;-74
2024/03/05 08:22:09;;;;;;;34.13;17.67;;;;;;;7.33;100.00;100551.13;5188955;28;20037;-74
2024/03/05 08:24:39;;;;;;;34.38;17.05;;;;;;;7.29;100.00;100554.69;5194592;28;20032;-74
2024/03/05 08:27:09;;;;;;;35.33;17.20;;;;;;;7.15;100.00;100560.22;5195143;28;20025;-74
2024/03/05 08:29:40;;;;;;;32.03;17.15;;;;;;;7.32;100.00;100554.63;5197843;28;20483;-75
2024/03/05 08:32:11;;;;;;;36.50;17.65;;;;;;;7.25;100.00;100557.41;5197513;28;20021;-74
2024/03/05 08:34:42;;;;;;;36.28;17.20;;;;;;;7.19;100.00;100561.88;5197625;28;20029;-74
2024/03/05 08:37:15;;;;;;;30.45;16.98;;;;;;;7.24;100.00;100563.47;5197370;28;20036;-74
2024/03/05 08:39:46;;;;;;;33.17;17.15;;;;;;;7.20;100.00;100563.56;5196888;28;20122;-74
2024/03/05 08:42:16;;;;;;;33.13;16.88;;;;;;;7.30;100.00;100564.19;5196687;28;20033;-74
2024/03/05 08:44:47;;;;;;;35.15;16.95;;;;;;;7.41;100.00;100562.22;5197868;28;20116;-74
2024/03/05 08:47:17;;;;;;;32.65;16.95;;;;;;;7.36;100.00;100558.84;5190306;28;20131;-74
2024/03/05 08:49:50;;;;;;;34.30;17.17;;;;;;;7.22;100.00;100568.69;5195308;28;20116;-74
2024/03/05 08:52:21;;;;;;;39.72;17.02;;;;;;;7.37;100.00;100560.56;5196469;28;20060;-74
2024/03/05 08:54:51;;;;;;;36.40;17.30;;;;;;;7.34;100.00;100570.19;5197347;28;20526;-74
2024/03/05 08:57:26;;;;;;;37.05;17.75;;;;;;;7.24;100.00;100578.25;5196032;28;20215;-74
2024/03/05 08:59:56;;;;;;;34.97;15.70;;;;;;;7.19;100.00;100574.84;5196479;28;20430;-74
2024/03/05 09:02:26;;;;;;;33.22;17.08;;;;;;;7.26;100.00;100569.50;5196011;28;20029;-74
2024/03/05 09:04:57;;;;;;;38.38;17.65;;;;;;;7.22;100.00;100583.47;5197442;28;20034;-74
2024/03/05 09:07:27;;;;;;;42.72;18.48;;;;;;;7.16;100.00;100590.53;5196083;28;20059;-74
2024/03/05 09:09:57;;;;;;;40.28;17.63;;;;;;;7.16;100.00;100582.72;5190849;28;21929;-74
2024/03/05 09:12:28;;;;;;;34.47;17.88;;;;;;;7.09;100.00;100589.78;5197461;28;20108;-74
2024/03/05 09:14:58;;;;;;;38.30;17.00;;;;;;;7.09;100.00;100596.75;5195835;28;20112;-74
2024/03/05 09:17:29;;;;;;;41.92;17.60;;;;;;;7.13;100.00;100590.59;5194012;28;20056;-73
2024/03/05 09:20:00;;;;;;;40.53;17.20;;;;;;;7.02;100.00;100596.03;5196584;28;20029;-74
2024/03/05 09:22:30;;;;;;;40.90;17.67;;;;;;;7.07;100.00;100603.72;5194171;28;20514;-74
2024/03/05 09:25:02;;;;;;;38.08;17.35;;;;;;;7.21;100.00;100604.25;5196786;28;20034;-74
2024/03/05 09:27:35;;;;;;;36.70;17.45;;;;;;;7.13;100.00;100604.44;5194283;28;20017;-74
2024/03/05 09:30:08;;;;;;;35.70;17.35;;;;;;;7.18;100.00;100610.41;5195696;28;20029;-74
2024/03/05 09:32:40;;;;;;;39.85;17.40;;;;;;;7.14;100.00;100602.69;5176369;28;20050;-74
2024/03/05 09:35:12;;;;;;;36.20;17.20;;;;;;;7.16;100.00;100606.13;5196626;28;20033;-75
2024/03/05 09:37:48;;;;;;;35.60;17.80;;;;;;;7.14;100.00;100606.13;5196896;28;20112;-74
2024/03/05 09:40:20;;;;;;;40.47;17.00;;;;;;;7.04;100.00;100607.25;5196743;28;20021;-74
2024/03/05 09:42:52;;;;;;;34.65;17.45;;;;;;;7.17;100.00;100613.03;5192303;28;20110;-73
2024/03/05 09:45:23;;;;;;;34.72;17.75;;;;;;;7.06;100.00;100607.19;5194190;28;20032;-74
2024/03/05 09:47:53;;;;;;;36.95;17.65;;;;;;;7.03;100.00;100605.53;5192051;28;20206;-74
2024/03/05 09:50:25;;;;;;;48.30;17.77;;;;;;;6.98;100.00;100606.50;5192744;28;20468;-74
2024/03/05 09:52:55;;;;;;;36.63;16.80;;;;;;;7.01;100.00;100611.63;5197170;28;20491;-74
2024/03/05 09:55:26;;;;;;;37.90;16.67;;;;;;;7.02;100.00;100608.16;5189591;28;20042;-74
2024/03/05 09:57:57;;;;;;;38.42;17.42;;;;;;;7.04;100.00;100615.03;5190070;28;20430;-74
2024/03/05 10:00:31;;;;;;;35.33;16.85;;;;;;;6.97;100.00;100618.63;5193284;28;20387;-74
2024/03/05 10:03:01;;;;;;;32.88;16.75;;;;;;;6.94;100.00;100620.44;5194229;28;20307;-74
2024/03/05 10:05:32;;;;;;;37.17;17.33;;;;;;;6.97;100.00;100615.19;5192722;28;20029;-74
2024/03/05 10:08:04;;;;;;;35.50;16.88;;;;;;;7.05;100.00;100618.47;5190776;28;20033;-75
2024/03/05 10:10:34;;;;;;;36.65;17.23;;;;;;;6.96;100.00;100629.06;5196986;28;20475;-74
2024/03/05 10:13:05;;;;;;;36.72;16.30;;;;;;;7.05;100.00;100618.47;5179306;28;20059;-74
2024/03/05 10:15:37;;;;;;;34.10;16.80;;;;;;;6.97;100.00;100634.22;5189345;28;20052;-74
2024/03/05 10:18:08;;;;;;;36.28;15.95;;;;;;;6.92;100.00;100624.81;5189960;28;20104;-75
2024/03/05 10:20:38;;;;;;;35.75;15.23;;;;;;;7.01;99.60;100633.28;5171619;28;20046;-74
2024/03/05 10:23:10;;;;;;;28.73;15.00;;;;;;;7.04;98.72;100629.75;5191807;28;20473;-74
2024/03/05 10:25:41;;;;;;;35.08;16.27;;;;;;;7.02;98.24;100635.00;5191940;28;20506;-74
2024/03/05 10:28:12;;;;;;;30.55;15.18;;;;;;;7.14;98.90;100636.47;5189825;28;20037;-75
2024/03/05 10:30:46;;;;;;;34.78;16.13;;;;;;;7.19;97.81;100632.03;5193124;28;20025;-75
2024/03/05 10:33:16;;;;;;;34.42;15.63;;;;;;;7.24;98.66;100636.25;5189772;28;20482;-75
2024/03/05 10:35:50;;;;;;;36.53;15.90;;;;;;;7.22;97.88;100632.84;5192264;28;20041;-74
2024/03/05 10:38:20;;;;;;;28.90;15.45;;;;;;;7.30;97.94;100639.59;5186161;28;20280;-75
2024/03/05 10:40:55;;;;;;;28.83;14.75;;;;;;;7.24;97.79;100646.66;5189767;28;20569;-75
2024/03/05 10:43:26;;;;;;;35.25;16.20;;;;;;;7.34;98.02;100638.63;5192162;28;20029;-75
2024/03/05 10:45:56;;;;;;;36.72;14.77;;;;;;;7.33;99.17;100631.72;5190068;28;20037;-75
2024/03/05 10:48:28;;;;;;;33.17;15.65;;;;;;;7.20;98.33;100644.13;5189354;28;20030;-75
2024/03/05 10:51:00;;;;;;;30.88;14.77;;;;;;;7.23;99.34;100639.75;5189670;28;20033;-74
2024/03/05 10:53:32;;;;;;;38.70;15.07;;;;;;;7.28;100.00;100651.75;5185089;28;20109;-75
2024/03/05 10:56:04;;;;;;;35.67;14.98;;;;;;;7.26;100.00;100644.88;5189454;28;20033;-74
2024/03/05 11:01:20;;;;;;;34.22;15.38;;;;;;;7.15;99.36;100635.59;5189046;28;20026;-74
2024/03/05 11:03:52;;;;;;;30.23;14.82;;;;;;;7.34;98.18;100633.41;5189841;28;20039;-75
2024/03/05 11:06:24;;;;;;;27.90;14.98;;;;;;;7.40;97.93;100638.50;5188939;28;20479;-75
2024/03/05 11:08:55;;;;;;;31.02;14.57;;;;;;;7.39;96.22;100643.72;5196592;28;20034;-75
2024/03/05 11:11:26;;;;;;;27.25;13.90;;;;;;;7.31;96.52;100645.63;5189380;28;20067;-74
2024/03/05 11:14:03;;;;;;;34.55;14.52;;;;;;;7.18;94.67;100652.00;5192900;28;20421;-75
2024/03/05 11:16:36;;;;;;;30.60;13.63;;;;;;;7.15;95.21;100651.19;5187002;28;20018;-75
2024/03/05 11:19:08;;;;;;;31.15;15.25;;;;;;;7.27;96.15;100648.34;5192765;28;20264;-74
2024/03/05 11:21:39;;;;;;;27.08;14.30;;;;;;;7.22;94.37;100638.03;5194958;28;20104;-75
2024/03/05 11:24:12;;;;;;;29.58;13.85;;;;;;;7.15;94.41;100646.00;5193137;28;20329;-75
2024/03/05 11:26:42;;;;;;;33.75;14.15;;;;;;;7.11;93.71;100649.53;5196673;28;20030;-74
2024/03/05 11:29:21;;;;;;;30.80;14.18;;;;;;;7.11;93.30;100646.94;5196074;28;20501;-74
2024/03/05 11:31:53;;;;;;;32.25;14.45;;;;;;;7.08;93.72;100640.06;5191915;28;20033;-75